createdAt,value
2022-12-01T00:01:15.558Z,5.73
2022-12-01T00:03:42.417Z,5.73
2022-12-01T00:06:17.940Z,5.70
2022-12-01T00:09:06.173Z,5.70
2022-12-01T00:11:33.816Z,5.67
2022-12-01T00:14:01.052Z,5.66
2022-12-01T00:16:27.919Z,5.66
2022-12-01T00:18:54.779Z,5.64
2022-12-01T00:21:23.357Z,5.61
2022-12-01T00:23:54.273Z,5.58
2022-12-01T00:26:22.045Z,5.59
2022-12-01T00:28:54.083Z,5.57
2022-12-01T00:31:21.666Z,5.58
2022-12-01T00:33:49.647Z,5.58
2022-12-01T00:36:16.665Z,5.54
2022-12-01T00:38:43.363Z,5.53
2022-12-01T00:41:10.108Z,5.52
2022-12-01T00:43:36.965Z,5.49
2022-12-01T00:46:04.024Z,5.48
2022-12-01T00:48:30.787Z,5.48
2022-12-01T00:50:57.461Z,5.48
2022-12-01T00:53:24.813Z,5.51
2022-12-01T00:55:53.872Z,5.51
2022-12-01T00:58:21.436Z,5.53
2022-12-01T01:00:48.330Z,5.47
2022-12-01T01:03:15.148Z,5.55
2022-12-01T01:05:44.326Z,5.55
2022-12-01T01:08:13.421Z,5.54
2022-12-01T01:10:42.275Z,5.52
2022-12-01T01:13:09.460Z,5.52
2022-12-01T01:15:36.558Z,5.52
2022-12-01T01:18:03.533Z,5.52
2022-12-01T01:20:30.329Z,5.53
2022-12-01T01:22:57.150Z,5.51
2022-12-01T01:25:24.258Z,5.51
2022-12-01T01:27:51.638Z,5.50
2022-12-01T01:30:20.058Z,5.50
2022-12-01T01:32:47.353Z,5.51
2022-12-01T01:35:14.093Z,5.46
2022-12-01T01:37:40.782Z,5.40
2022-12-01T01:40:08.298Z,5.37
2022-12-01T01:42:35.020Z,5.33
2022-12-01T01:45:01.727Z,5.29
2022-12-01T01:47:36.880Z,5.23
2022-12-01T01:50:09.255Z,5.18
2022-12-01T01:52:51.509Z,5.08
2022-12-01T01:55:19.490Z,5.13
2022-12-01T01:57:46.696Z,5.17
2022-12-01T02:00:19.084Z,5.05
2022-12-01T02:02:48.162Z,5.01
2022-12-01T02:05:27.203Z,4.98
2022-12-01T02:07:56.349Z,5.02
2022-12-01T02:10:30.067Z,5.01
2022-12-01T02:13:04.561Z,4.90
2022-12-01T02:15:43.560Z,5.00
2022-12-01T02:18:42.423Z,5.00
2022-12-01T02:21:33.426Z,4.94
2022-12-01T02:24:50.836Z,4.83
2022-12-01T02:27:51.162Z,4.82
2022-12-01T02:30:38.859Z,4.84
2022-12-01T02:33:15.099Z,4.79
2022-12-01T02:36:13.404Z,4.66
2022-12-01T02:38:58.990Z,4.61
2022-12-01T02:41:43.465Z,4.54
2022-12-01T02:44:25.966Z,4.52
2022-12-01T02:47:00.127Z,4.49
2022-12-01T02:49:39.295Z,4.45
2022-12-01T02:52:07.335Z,4.47
2022-12-01T02:54:34.891Z,4.49
2022-12-01T02:57:01.613Z,4.51
2022-12-01T02:59:28.350Z,4.50
2022-12-01T03:02:06.398Z,4.49
2022-12-01T03:04:35.940Z,4.49
2022-12-01T03:07:08.803Z,4.51
2022-12-01T03:09:50.451Z,4.44
2022-12-01T03:12:26.432Z,4.53
2022-12-01T03:15:08.229Z,4.49
2022-12-01T03:18:07.046Z,4.45
2022-12-01T03:20:52.298Z,4.49
2022-12-01T03:23:23.410Z,4.44
2022-12-01T03:25:54.708Z,4.40
2022-12-01T03:28:28.911Z,4.36
2022-12-01T03:30:59.697Z,4.32
2022-12-01T03:33:35.087Z,4.29
2022-12-01T03:36:04.237Z,4.26
2022-12-01T03:38:33.619Z,4.23
2022-12-01T03:41:07.944Z,4.23
2022-12-01T03:43:40.865Z,4.19
2022-12-01T03:46:21.657Z,4.15
2022-12-01T03:48:49.374Z,4.20
2022-12-01T03:51:29.456Z,4.18
2022-12-01T03:54:39.552Z,4.18
2022-12-01T03:57:10.054Z,4.19
2022-12-01T03:59:39.218Z,4.24
2022-12-01T04:02:07.901Z,4.28
2022-12-01T04:04:35.082Z,4.33
2022-12-01T04:07:01.780Z,4.36
2022-12-01T04:09:28.940Z,4.40
2022-12-01T04:12:14.105Z,4.41
2022-12-01T04:14:40.758Z,4.38
2022-12-01T04:17:07.469Z,4.38
2022-12-01T04:19:34.123Z,4.37
2022-12-01T04:22:00.766Z,4.35
2022-12-01T04:24:27.461Z,4.30
2022-12-01T04:26:54.150Z,4.29
2022-12-01T04:29:20.989Z,4.25
2022-12-01T04:31:47.866Z,4.23
2022-12-01T04:34:14.588Z,4.19
2022-12-01T04:36:41.276Z,4.15
2022-12-01T04:39:08.018Z,4.09
2022-12-01T04:41:34.685Z,4.07
2022-12-01T04:44:01.355Z,4.05
2022-12-01T04:46:28.075Z,4.05
2022-12-01T04:48:54.785Z,4.02
2022-12-01T04:51:22.413Z,4.00
2022-12-01T04:53:50.246Z,3.98
2022-12-01T04:56:17.470Z,3.97
2022-12-01T04:58:44.278Z,3.98
2022-12-01T05:01:16.629Z,3.96
2022-12-01T05:03:45.827Z,3.95
2022-12-01T05:06:16.036Z,3.96
2022-12-01T05:08:43.049Z,3.96
2022-12-01T05:11:12.254Z,4.01
2022-12-01T05:13:40.899Z,4.03
2022-12-01T05:16:12.208Z,4.08
2022-12-01T05:18:39.395Z,4.07
2022-12-01T05:21:07.999Z,4.05
2022-12-01T05:23:36.906Z,4.05
2022-12-01T05:26:05.722Z,4.05
2022-12-01T05:28:32.615Z,4.05
2022-12-01T05:30:59.632Z,4.03
2022-12-01T05:33:27.624Z,4.06
2022-12-01T05:35:55.084Z,4.07
2022-12-01T05:38:21.877Z,4.06
2022-12-01T05:40:53.258Z,4.02
2022-12-01T05:43:27.148Z,4.02
2022-12-01T05:45:56.627Z,3.99
2022-12-01T05:48:23.669Z,3.98
2022-12-01T05:50:50.430Z,3.96
2022-12-01T05:53:17.600Z,3.95
2022-12-01T05:55:44.487Z,3.95
2022-12-01T05:58:11.301Z,3.96
2022-12-01T06:00:45.277Z,3.93
2022-12-01T06:03:13.060Z,3.93
2022-12-01T06:05:40.036Z,3.92
2022-12-01T06:08:07.138Z,3.92
2022-12-01T06:10:33.841Z,3.92
2022-12-01T06:13:00.582Z,3.94
2022-12-01T06:15:28.446Z,3.94
2022-12-01T06:17:55.130Z,3.94
2022-12-01T06:20:23.392Z,3.94
2022-12-01T06:22:50.035Z,3.93
2022-12-01T06:25:16.931Z,3.91
2022-12-01T06:27:43.606Z,3.90
2022-12-01T06:30:10.788Z,3.88
2022-12-01T06:32:37.758Z,3.83
2022-12-01T06:35:04.768Z,3.80
2022-12-01T06:37:32.671Z,3.83
2022-12-01T06:39:59.350Z,3.86
2022-12-01T06:42:28.903Z,3.90
2022-12-01T06:44:56.003Z,3.94
2022-12-01T06:47:22.713Z,4.00
2022-12-01T06:49:49.535Z,4.10
2022-12-01T06:52:16.330Z,4.26
2022-12-01T06:54:42.994Z,4.41
2022-12-01T06:57:10.004Z,4.56
2022-12-01T06:59:36.808Z,4.69
2022-12-01T07:02:03.839Z,4.92
2022-12-01T07:04:31.089Z,5.17
2022-12-01T07:06:57.847Z,5.38
2022-12-01T07:09:24.581Z,5.52
2022-12-01T07:11:53.988Z,5.65
2022-12-01T07:14:24.666Z,5.78
2022-12-01T07:16:51.865Z,5.79
2022-12-01T07:19:18.992Z,5.78
2022-12-01T07:21:45.780Z,5.82
2022-12-01T07:24:12.704Z,5.84
2022-12-01T07:26:41.282Z,5.84
2022-12-01T07:29:09.426Z,5.76
2022-12-01T07:31:37.062Z,5.72
2022-12-01T07:34:04.088Z,5.71
2022-12-01T07:36:31.839Z,5.73
2022-12-01T07:38:58.651Z,5.67
2022-12-01T07:41:25.572Z,5.62
2022-12-01T07:43:52.333Z,5.57
2022-12-01T07:46:23.758Z,5.59
2022-12-01T07:48:51.739Z,5.65
2022-12-01T07:51:19.317Z,5.64
2022-12-01T07:53:47.765Z,5.67
2022-12-01T07:56:15.100Z,5.66
2022-12-01T07:58:42.401Z,5.68
2022-12-01T08:01:10.257Z,5.73
2022-12-01T08:03:37.739Z,5.82
2022-12-01T08:06:06.008Z,5.90
2022-12-01T08:08:34.667Z,5.98
2022-12-01T08:11:04.026Z,6.03
2022-12-01T08:13:31.358Z,6.14
2022-12-01T08:15:58.194Z,6.25
2022-12-01T08:18:25.177Z,6.34
2022-12-01T08:20:56.119Z,6.46
2022-12-01T08:23:22.796Z,6.58
2022-12-01T08:25:49.572Z,6.69
2022-12-01T08:28:16.257Z,6.82
2022-12-01T08:30:43.042Z,6.87
2022-12-01T08:33:09.885Z,6.88
2022-12-01T08:35:37.413Z,6.91
2022-12-01T08:38:04.894Z,6.89
2022-12-01T08:40:32.025Z,6.77
2022-12-01T08:42:59.003Z,6.74
2022-12-01T08:45:25.748Z,6.72
2022-12-01T08:47:54.910Z,6.77
2022-12-01T08:50:21.609Z,6.71
2022-12-01T08:52:48.361Z,6.55
2022-12-01T08:55:15.163Z,6.53
2022-12-01T08:57:41.972Z,6.60
2022-12-01T09:00:09.348Z,6.67
2022-12-01T09:02:36.218Z,6.76
2022-12-01T09:05:03.331Z,6.85
2022-12-01T09:07:30.198Z,6.93
2022-12-01T09:09:56.949Z,6.95
2022-12-01T09:12:23.787Z,6.93
2022-12-01T09:14:50.503Z,6.87
2022-12-01T09:17:18.066Z,6.77
2022-12-01T09:19:44.929Z,6.75
2022-12-01T09:22:12.266Z,6.70
2022-12-01T09:24:39.330Z,6.72
2022-12-01T09:27:06.117Z,6.79
2022-12-01T09:29:33.304Z,6.90
2022-12-01T09:32:00.960Z,6.96
2022-12-01T09:34:29.005Z,7.13
2022-12-01T09:36:57.716Z,7.30
2022-12-01T09:39:25.029Z,7.47
2022-12-01T09:42:07.631Z,7.51
2022-12-01T09:44:52.523Z,7.58
2022-12-01T09:47:26.203Z,7.34
2022-12-01T09:50:07.024Z,7.63
2022-12-01T09:52:47.139Z,7.68
2022-12-01T09:55:17.068Z,7.59
2022-12-01T09:58:11.131Z,7.45
2022-12-01T10:00:43.738Z,7.35
2022-12-01T10:03:29.272Z,7.26
2022-12-01T10:09:15.557Z,7.10
2022-12-01T10:11:44.836Z,7.18
2022-12-01T10:14:21.179Z,7.13
2022-12-01T10:17:26.891Z,7.13
2022-12-01T10:20:08.298Z,7.07
2022-12-01T10:23:08.616Z,6.91
2022-12-01T10:25:57.278Z,6.92
2022-12-01T10:28:34.639Z,6.97
2022-12-01T10:31:32.232Z,7.07
2022-12-01T10:34:06.083Z,7.05
2022-12-01T10:36:34.910Z,7.08
2022-12-01T10:39:04.759Z,7.15
2022-12-01T10:41:35.829Z,7.20
2022-12-01T10:44:05.671Z,7.28
2022-12-01T10:46:46.871Z,7.30
2022-12-01T10:49:16.600Z,7.42
2022-12-01T10:51:56.838Z,7.31
2022-12-01T10:54:32.011Z,7.33
2022-12-01T10:57:00.855Z,7.42
2022-12-01T10:59:41.071Z,7.44
2022-12-01T11:02:24.304Z,7.50
2022-12-01T11:05:00.324Z,7.63
2022-12-01T11:07:42.516Z,7.76
2022-12-01T11:10:30.125Z,7.86
2022-12-01T11:12:58.083Z,8.03
2022-12-01T11:15:34.378Z,8.18
2022-12-01T11:18:07.965Z,8.35
2022-12-01T11:20:40.128Z,8.45
2022-12-01T11:23:21.028Z,8.44
2022-12-01T11:26:01.290Z,8.45
2022-12-01T11:28:28.642Z,8.56
2022-12-01T11:31:06.203Z,8.56
2022-12-01T11:33:44.290Z,8.55
2022-12-01T11:36:19.100Z,8.56
2022-12-01T11:38:47.053Z,8.56
2022-12-01T11:41:28.488Z,8.51
2022-12-01T11:44:01.565Z,8.56
2022-12-01T11:46:36.964Z,8.56
2022-12-01T11:49:04.241Z,8.56
2022-12-01T11:51:37.563Z,8.54
2022-12-01T11:54:18.880Z,8.17
2022-12-01T11:56:52.756Z,8.44
2022-12-01T11:59:31.274Z,8.42
2022-12-01T12:02:03.908Z,8.42
2022-12-01T12:05:01.971Z,8.31
2022-12-01T12:08:05.817Z,8.42
2022-12-01T12:10:56.229Z,8.43
2022-12-01T12:13:35.578Z,8.46
2022-12-01T12:16:22.518Z,8.36
2022-12-01T12:19:14.222Z,8.43
2022-12-01T12:22:12.601Z,8.53
2022-12-01T12:25:02.432Z,8.60
2022-12-01T12:27:51.964Z,8.61
2022-12-01T12:30:31.782Z,8.64
2022-12-01T12:33:25.853Z,8.57
2022-12-01T12:36:18.760Z,8.48
2022-12-01T12:39:03.683Z,8.40
2022-12-01T12:41:50.079Z,8.49
2022-12-01T12:44:16.748Z,8.55
2022-12-01T12:46:55.699Z,8.53
2022-12-01T12:49:43.188Z,8.57
2022-12-01T12:52:23.280Z,8.66
2022-12-01T12:55:22.557Z,8.59
2022-12-01T12:57:57.353Z,8.69
2022-12-01T13:00:30.855Z,8.70
2022-12-01T13:03:17.679Z,8.71
2022-12-01T13:06:02.115Z,8.64
2022-12-01T13:08:48.210Z,8.67
2022-12-01T13:11:46.397Z,8.51
2022-12-01T13:14:36.009Z,8.54
2022-12-01T13:17:26.675Z,8.49
2022-12-01T13:19:53.468Z,8.56
2022-12-01T13:22:24.202Z,8.50
2022-12-01T13:24:51.211Z,8.47
2022-12-01T13:27:22.844Z,8.42
2022-12-01T13:29:53.634Z,8.34
2022-12-01T13:32:32.681Z,8.26
2022-12-01T13:35:01.937Z,8.21
2022-12-01T13:37:35.625Z,8.17
2022-12-01T13:40:24.638Z,8.09
2022-12-01T13:43:06.943Z,8.09
2022-12-01T13:45:38.347Z,8.12
2022-12-01T13:48:06.896Z,8.12
2022-12-01T13:50:46.078Z,8.10
2022-12-01T13:53:36.944Z,8.03
2022-12-01T13:56:03.581Z,8.10
2022-12-01T13:58:33.167Z,8.07
2022-12-01T14:01:22.763Z,7.93
2022-12-01T14:04:03.323Z,7.93
2022-12-01T14:06:36.086Z,7.87
2022-12-01T14:09:23.803Z,7.78
2022-12-01T14:12:23.012Z,7.56
2022-12-01T14:15:27.791Z,7.55
2022-12-01T14:18:18.547Z,7.49
2022-12-01T14:20:47.878Z,7.48
2022-12-01T14:23:21.382Z,7.40
2022-12-01T14:26:19.563Z,7.29
2022-12-01T14:29:01.550Z,7.17
2022-12-01T14:31:34.158Z,7.16
2022-12-01T14:34:24.345Z,7.00
2022-12-01T14:37:35.384Z,6.91
2022-12-01T14:40:21.092Z,6.91
2022-12-01T14:43:10.312Z,6.95
2022-12-01T14:45:53.098Z,6.92
2022-12-01T14:48:26.818Z,6.88
2022-12-01T14:51:28.363Z,6.75
2022-12-01T14:53:57.192Z,6.74
2022-12-01T14:56:26.108Z,6.72
2022-12-01T14:58:58.518Z,6.64
2022-12-01T15:01:34.184Z,6.62
2022-12-01T15:04:04.236Z,6.61
2022-12-01T15:06:32.566Z,6.56
2022-12-01T15:12:03.954Z,6.47
2022-12-01T15:14:34.136Z,6.45
2022-12-01T15:17:02.826Z,6.44
2022-12-01T15:19:41.027Z,6.34
2022-12-01T15:22:18.308Z,6.29
2022-12-01T15:24:45.634Z,6.34
2022-12-01T15:27:27.403Z,6.28
2022-12-01T15:29:54.901Z,6.31
2022-12-01T15:32:24.020Z,6.28
2022-12-01T15:34:55.662Z,6.27
2022-12-01T15:37:26.145Z,6.23
2022-12-01T15:43:22.183Z,6.05
2022-12-01T15:45:58.863Z,6.00
2022-12-01T15:48:31.987Z,5.98
2022-12-01T15:51:04.171Z,5.72
2022-12-01T15:53:33.997Z,5.84
2022-12-01T15:56:06.468Z,5.86
2022-12-01T15:58:41.731Z,5.85
2022-12-01T16:01:19.646Z,5.83
2022-12-01T16:04:02.620Z,5.86
2022-12-01T16:06:39.316Z,5.86
2022-12-01T16:09:26.283Z,5.83
2022-12-01T16:12:19.698Z,5.89
2022-12-01T16:14:50.755Z,5.91
2022-12-01T16:17:17.649Z,5.97
2022-12-01T16:19:45.608Z,5.95
2022-12-01T16:22:12.278Z,5.95
2022-12-01T16:24:46.916Z,5.91
2022-12-01T16:27:23.844Z,5.83
2022-12-01T16:29:54.136Z,5.77
2022-12-01T16:32:23.521Z,5.75
2022-12-01T16:34:54.151Z,5.64
2022-12-01T16:37:22.367Z,5.63
2022-12-01T16:39:49.791Z,5.58
2022-12-01T16:42:18.616Z,5.52
2022-12-01T16:44:46.722Z,5.48
2022-12-01T16:47:25.366Z,5.38
2022-12-01T16:49:53.200Z,5.33
2022-12-01T16:55:25.497Z,5.13
2022-12-01T16:57:52.278Z,5.14
2022-12-01T17:00:19.497Z,5.11
2022-12-01T17:02:46.313Z,5.03
2022-12-01T17:05:13.340Z,5.00
2022-12-01T17:07:41.773Z,4.96
2022-12-01T17:10:09.383Z,4.93
2022-12-01T17:12:36.313Z,4.90
2022-12-01T17:15:03.777Z,4.85
2022-12-01T17:17:31.360Z,4.81
2022-12-01T17:19:58.161Z,4.78
2022-12-01T17:22:25.299Z,4.75
2022-12-01T17:24:52.209Z,4.73
2022-12-01T17:27:19.234Z,4.70
2022-12-01T17:29:46.533Z,4.69
2022-12-01T17:32:13.915Z,4.66
2022-12-01T17:34:41.263Z,4.63
2022-12-01T17:37:08.100Z,4.60
2022-12-01T17:39:34.958Z,4.57
2022-12-01T17:42:01.770Z,4.56
2022-12-01T17:44:28.605Z,4.54
2022-12-01T17:46:55.403Z,4.51
2022-12-01T17:49:22.754Z,4.49
2022-12-01T17:51:49.510Z,4.45
2022-12-01T17:54:16.438Z,4.42
2022-12-01T17:56:43.424Z,4.40
2022-12-01T17:59:10.191Z,4.39
2022-12-01T18:01:38.093Z,4.38
2022-12-01T18:04:05.119Z,4.33
2022-12-01T18:06:32.150Z,4.32
2022-12-01T18:09:00.835Z,4.28
2022-12-01T18:11:27.933Z,4.28
2022-12-01T18:13:54.912Z,4.26
2022-12-01T18:16:23.487Z,4.24
2022-12-01T18:18:50.948Z,4.21
2022-12-01T18:21:19.951Z,4.19
2022-12-01T18:23:58.260Z,4.14
2022-12-01T18:26:27.074Z,4.13
2022-12-01T18:29:05.157Z,4.12
2022-12-01T18:31:33.205Z,4.12
2022-12-01T18:34:04.525Z,4.09
2022-12-01T18:36:34.304Z,4.07
2022-12-01T18:39:03.243Z,4.05
2022-12-01T18:41:30.611Z,4.03
2022-12-01T18:43:58.118Z,4.02
2022-12-01T18:46:25.147Z,3.97
2022-12-01T18:49:00.461Z,3.90
2022-12-01T18:51:28.296Z,3.93
2022-12-01T18:53:56.432Z,3.88
2022-12-01T18:56:23.176Z,3.90
2022-12-01T18:58:58.838Z,3.88
2022-12-01T19:01:36.450Z,3.83
2022-12-01T19:04:04.264Z,3.87
2022-12-01T19:06:32.509Z,3.85
2022-12-01T19:09:01.155Z,3.84
2022-12-01T19:11:28.918Z,3.79
2022-12-01T19:13:58.686Z,3.78
2022-12-01T19:16:26.100Z,3.76
2022-12-01T19:18:53.117Z,3.76
2022-12-01T19:21:20.767Z,3.78
2022-12-01T19:23:48.499Z,3.79
2022-12-01T19:26:18.684Z,3.78
2022-12-01T19:28:47.979Z,3.78
2022-12-01T19:31:18.767Z,3.75
2022-12-01T19:33:45.885Z,3.73
2022-12-01T19:36:15.908Z,3.69
2022-12-01T19:38:42.724Z,3.69
2022-12-01T19:41:10.709Z,3.70
2022-12-01T19:43:38.425Z,3.69
2022-12-01T19:46:10.287Z,3.66
2022-12-01T19:48:37.456Z,3.67
2022-12-01T19:51:04.635Z,3.69
2022-12-01T19:53:33.771Z,3.72
2022-12-01T19:56:05.668Z,3.71
2022-12-01T19:58:35.914Z,3.71
2022-12-01T20:01:04.679Z,3.72
2022-12-01T20:03:31.670Z,3.74
2022-12-01T20:06:04.092Z,3.74
2022-12-01T20:08:36.119Z,3.74
2022-12-01T20:11:04.454Z,3.76
2022-12-01T20:13:32.981Z,3.77
2022-12-01T20:16:12.142Z,3.72
2022-12-01T20:18:41.100Z,3.76
2022-12-01T20:21:16.467Z,3.76
2022-12-01T20:23:45.443Z,3.84
2022-12-01T20:26:15.035Z,3.83
2022-12-01T20:28:42.841Z,3.85
2022-12-01T20:31:16.019Z,3.83
2022-12-01T20:33:43.202Z,3.86
2022-12-01T20:36:10.533Z,3.87
2022-12-01T20:38:38.188Z,3.92
2022-12-01T20:41:05.925Z,3.95
2022-12-01T20:43:33.620Z,3.95
2022-12-01T20:46:00.946Z,3.97
2022-12-01T20:48:28.200Z,4.00
2022-12-01T20:50:55.739Z,4.03
2022-12-01T20:53:22.995Z,4.06
2022-12-01T20:55:49.966Z,4.07
2022-12-01T20:58:16.708Z,4.08
2022-12-01T21:00:46.665Z,4.11
2022-12-01T21:03:13.934Z,4.15
2022-12-01T21:05:42.237Z,4.14
2022-12-01T21:08:12.288Z,4.16
2022-12-01T21:10:42.535Z,4.14
2022-12-01T21:13:42.311Z,4.04
2022-12-01T21:16:28.518Z,4.07
2022-12-01T21:19:14.406Z,4.02
2022-12-01T21:21:41.700Z,4.01
2022-12-01T21:24:08.330Z,4.04
2022-12-01T21:26:41.076Z,4.00
2022-12-01T21:29:25.025Z,3.95
2022-12-01T21:31:54.541Z,3.98
2022-12-01T21:34:26.932Z,3.96
2022-12-01T21:36:57.113Z,3.93
2022-12-01T21:39:25.219Z,3.93
2022-12-01T21:41:55.999Z,3.92
2022-12-01T21:44:27.051Z,3.88
2022-12-01T21:46:58.294Z,3.80
2022-12-01T21:49:39.793Z,3.74
2022-12-01T21:52:44.741Z,3.64
2022-12-01T21:55:17.667Z,3.64
2022-12-01T21:57:54.370Z,3.60
2022-12-01T22:00:24.223Z,3.63
2022-12-01T22:02:58.463Z,3.62
2022-12-01T22:05:41.364Z,3.60
2022-12-01T22:08:27.610Z,3.56
2022-12-01T22:11:04.819Z,3.60
2022-12-01T22:13:59.305Z,3.57
2022-12-01T22:16:32.244Z,3.55
2022-12-01T22:19:19.410Z,3.53
2022-12-01T22:21:48.043Z,3.53
2022-12-01T22:24:40.959Z,3.50
2022-12-01T22:27:13.446Z,3.45
2022-12-01T22:29:45.147Z,3.39
2022-12-01T22:32:11.811Z,3.37
2022-12-01T22:34:39.668Z,3.37
2022-12-01T22:37:24.811Z,3.31
2022-12-01T22:39:55.700Z,3.37
2022-12-01T22:42:40.361Z,3.30
2022-12-01T22:45:26.848Z,3.26
2022-12-01T22:48:00.771Z,3.32
2022-12-01T22:50:30.921Z,3.31
2022-12-01T22:53:16.001Z,3.26
2022-12-01T22:55:42.872Z,3.31
2022-12-01T22:58:32.166Z,3.23
2022-12-01T23:01:22.860Z,3.20
2022-12-01T23:03:50.097Z,3.24
2022-12-01T23:06:41.245Z,3.18
2022-12-01T23:09:15.522Z,3.22
2022-12-01T23:12:06.595Z,3.21
2022-12-01T23:14:35.101Z,3.19
2022-12-01T23:17:08.020Z,3.15
2022-12-01T23:19:35.265Z,3.14
2022-12-01T23:22:02.583Z,3.13
2022-12-01T23:24:33.701Z,3.13
2022-12-01T23:27:00.972Z,3.09
2022-12-01T23:29:27.950Z,3.09
2022-12-01T23:31:55.252Z,3.07
2022-12-01T23:34:22.075Z,3.08
2022-12-01T23:36:50.463Z,3.08
2022-12-01T23:39:18.700Z,3.12
2022-12-01T23:41:50.408Z,3.12
2022-12-01T23:44:36.082Z,3.13
2022-12-01T23:47:08.699Z,3.08
2022-12-01T23:49:36.243Z,3.03
2022-12-01T23:52:05.950Z,3.03
2022-12-01T23:54:34.882Z,3.02
2022-12-01T23:57:04.041Z,3.02
2022-12-01T23:59:31.656Z,3.00
